Cambiasca, Brazil
Current Conditions -  °F | °C
As of 2:00 PM on Friday 24 Oct 2014 (Local Time) from SBCP Reporting Station
Scattered Clouds Scattered Clouds  
Wind Chill: 84°   Ceiling: Unl
Heat Index: 86°   Visibility: 6mi
Dew Point: 64°   Wind: 16mph
Humidity: 51%   Direction: 100°E
Pressure: 29.97"   Gusts: NA
Location:  21.71°S, 41.92°W
Report Text: SBCP 241600Z 10014KT 9999 SCT030 29/18 Q1015
Loading
Personal Weather Stations






























Interactive Weather Map
Tropical Storm Tracking
New forecast layout! Learn more

10-Day Weather Forecast

Advertisements
Track Severe Weather on mobile